Blue Oak Ranch Reserve, California Weather observations

Data are for 10 minute period ending at time listed.
 Day   Time   Solar   Ave.   Ave.  Ave.  Vector  Max.   Baro.   Total    
  of    of     Rad.   Air    Rel.  Wind   Wind   Wind  Press.  Precip.   
Year   Day            Temp.  Hum.  Speed  Dir.   Gust                    
2014   (PST)  Kw/m2    F      %     mph   deg.    mph    mb.     in.     
-------------------------------------------------------------------------
 205    9:30   0.71   74.8    50    6.1   233     8.6   949.3    0.00 
 205    9:40   0.74   74.7    51    6.4   232    11.1   949.3    0.00 
 205    9:50   0.76   74.7    51    5.5   237     9.0   949.3    0.00 
 205   10:00   0.78   75.8    49    6.2   237    10.7   949.2    0.00 
 205   10:10   0.80   76.3    48    5.6   239    10.1   949.2    0.00 
 205   10:20   0.81   77.0    47    6.1   232    10.3   949.1    0.00 
 205   10:30   0.83   78.0    46    5.2   241    10.4   949.1    0.00 
 205   10:40   0.84   77.4    46    6.6   234     9.7   948.9    0.00 
 205   10:50   0.85   78.3    45    6.5   227     9.9   948.8    0.00 
 205   11:00   0.86   79.1    45    6.3   237    10.1   948.7    0.00 
 205   11:10   0.88   79.6    44    6.4   242    10.6   948.6    0.00 
 205   11:20   0.88   80.7    43    6.1   238    10.2   948.5    0.00 
 205   11:30   0.89   82.0    41    5.7   245     9.1   948.3    0.00 
 205   11:40   0.90   82.6    40    6.3   243    10.2   948.2    0.00 
 205   11:50   0.90   82.4    40    8.0   230    12.1   948.1    0.00 
 205   12:00   0.90   82.8    38    7.0   236    11.5   948.0    0.00 
 205   12:10   0.90   83.7    37    6.4   245    10.3   948.0    0.00 
 205   12:20   0.90   84.8    35    6.2   248    11.1   947.9    0.00 
 205   12:30   0.90   84.4    36    7.8   243    13.2   947.8    0.00 
 205   12:40   0.90   84.4    36    6.5   242    11.1   947.7    0.00 
 205   12:50   0.89   84.6    38    8.8   249    14.4   947.5    0.00 
 205   13:00   0.86   84.1    38    7.8   238    13.1   947.3    0.00 
 205   13:10   0.88   84.7    37    7.6   247    13.8   947.2    0.00 
 205   13:20   0.87   85.5    35    7.1   252    11.7   947.0    0.00 
 205   13:30   0.86   85.8    34    7.3   255    14.4   946.8    0.00 
 205   13:40   0.85   86.7    33    7.1   274    12.8   946.7    0.00 
 205   13:50   0.84   87.3    32    7.6   274    14.5   946.4    0.00 
 205   14:00   0.83   87.4    31    9.1   261    16.1   946.3    0.00 
 205   14:10   0.81   86.7    31    8.9   256    14.0   946.2    0.00 
 205   14:20   0.80   88.1    30    7.7   278    13.6   946.1    0.00 
 205   14:30   0.78   88.3    30    8.7   282    13.7   946.0    0.00 
 205   14:40   0.77   88.1    31    8.2   295    14.8   945.9    0.00 
 205   14:50   0.74   87.9    30    8.4   288    14.4   945.9    0.00 
 205   15:00   0.72   87.3    31    9.2   291    14.7   945.7    0.00 
 205   15:10   0.70   87.2    30    7.6   282    12.0   945.6    0.00 
 205   15:20   0.67   87.9    30    7.7   274    15.4   945.5    0.00 
 205   15:30   0.65   87.7    30    6.1   271    13.0   945.6    0.00 
 205   15:40   0.62   87.5    30    6.9   277    12.6   945.5    0.00 
 205   15:50   0.59   87.3    31    7.6   273    12.6   945.5    0.00 
 205   16:00   0.57   86.9    31    7.9   281    13.2   945.3    0.00 
 205   16:10   0.54   87.5    30    7.2   282    11.6   945.3    0.00 
 205   16:20   0.51   87.1    30    7.6   295    13.2   945.2    0.00 
 205   16:30   0.48   86.8    30    6.7   294    11.0   945.2    0.00 
 205   16:40   0.45   86.9    31    6.4   270    11.2   945.1    0.00 
 205   16:50   0.42   86.3    31    6.7   279    10.7   945.1    0.00 
 205   17:00   0.39   86.3    31    6.7   284    11.5   945.1    0.00 
 205   17:10   0.36   85.8    31    6.5   289    11.8   945.2    0.00 
 205   17:20   0.33   85.1    31    7.9   287    11.6   945.2    0.00 
 205   17:30   0.29   84.7    31    6.5   294    10.1   945.2    0.00 
 205   17:40   0.26   84.3    32    7.0   288    10.5   945.2    0.00 
 205   17:50   0.23   83.8    32    6.8   287     9.9   945.2    0.00 
 205   18:00   0.20   83.2    32    6.3   282     9.3   945.2    0.00 
 205   18:10   0.17   82.7    31    7.7   287    10.6   945.2    0.00 
 205   18:20   0.14   81.5    32    7.0   294    10.4   945.3    0.00 
 205   18:30   0.11   80.8    32    5.8   290     8.7   945.4    0.00 
 205   18:40   0.09   80.5    32    5.1   281     8.3   945.5    0.00 
 205   18:50   0.07   80.0    32    2.9   285     6.8   945.5    0.00 
 205   19:00   0.05   79.6    32    2.3   276     3.7   945.4    0.00 
 205   19:10   0.02   77.7    34    2.7   289     4.5   945.5    0.00 
 205   19:20   0.01   74.3    38    1.4   321     2.1   945.5    0.00 
 205   19:30   0.01   72.7    39    0.6   291     1.5   945.6    0.00 
 205   19:40   0.00   71.2    41    0.7   331     1.8   945.6    0.00 
 205   19:50   0.00   69.7    42    1.5    57     3.1   945.6    0.00 
 205   20:00   0.00   68.9    43    1.6    49     3.3   945.6    0.00 
 205   20:10   0.00   67.9    45    2.0   292     2.9   945.5    0.00 
 205   20:20   0.00   67.3    45    1.6   327     3.1   945.5    0.00 
 205   20:30   0.00   66.7    46    0.8   269     2.4   945.4    0.00 
 205   20:40   0.00   66.1    47    1.1   282     3.0   945.3    0.00 
 205   20:50   0.00   64.9    49    1.7   350     2.9   945.3    0.00 
 205   21:00   0.00   64.7    49    1.1    28     2.3   945.3    0.00 
 205   21:10   0.00   64.5    50    0.7   286     1.6   945.3    0.00 
 205   21:20   0.00   64.1    51    0.3    24     1.4   945.2    0.00 
 205   21:30   0.00   63.5    52    0.1   258     1.5   945.2    0.00 
 205   21:40   0.00   63.0    53    0.7   287     1.6   945.2    0.00 
 205   21:50   0.00   62.8    54    0.4    13     1.8   945.3    0.00 
 205   22:00   0.00   62.2    54    1.9   304     3.8   945.3    0.00 
 205   22:10   0.00   62.0    54    1.5   299     4.6   945.2    0.00 
 205   22:20   0.00   62.2    54    1.1   309     2.0   945.2    0.00 
 205   22:30   0.00   62.3    53    0.8   356     1.9   945.3    0.00 
 205   22:40   0.00   61.7    54    1.1   304     2.3   945.3    0.00 
 205   22:50   0.00   61.1    55    0.2   310     1.3   945.3    0.00 
 205   23:00   0.00   61.6    53    1.7   292     3.1   945.4    0.00 
 205   23:10   0.00   61.6    53    2.0   297     3.2   945.3    0.00 
 205   23:20   0.00   62.0    52    1.3   298     2.4   945.3    0.00 
 205   23:30   0.00   61.7    52    0.4   290     2.5   945.3    0.00 
 205   23:40   0.00   61.5    53    1.0   334     2.2   945.2    0.00 
 205   23:50   0.00   61.3    53    1.0   294     2.1   945.2    0.00 
 206    0:00   0.00   61.5    52    0.4   284     1.6   945.2    0.00 
 206    0:10   0.00   61.2    52    0.1   310     0.7   945.2    0.00 
 206    0:20   0.00   60.6    53    0.6   300     1.7   945.1    0.00 
 206    0:30   0.00   60.8    52    1.4   304     2.3   945.2    0.00 
 206    0:40   0.00   61.1    52    1.4   290     2.5   945.0    0.00 
 206    0:50   0.00   60.9    52    0.9   352     2.1   945.0    0.00 
 206    1:00   0.00   61.5    51    0.9   349     1.9   945.0    0.00 
 206    1:10   0.00   61.4    51    1.0    61     2.0   944.8    0.00 
 206    1:20   0.00   61.0    52    0.5   282     1.5   944.7    0.00 
 206    1:30   0.00   60.6    53    0.4   270     2.2   944.6    0.00 
 206    1:40   0.00   60.7    53    2.1   291     3.7   944.6    0.00 
 206    1:50   0.00   60.3    54    0.0   309     0.9   944.6    0.00 
 206    2:00   0.00   61.2    52    0.0     0     0.0   944.5    0.00 
 206    2:10   0.00   60.7    53    0.2   288     0.9   944.6    0.00 
 206    2:20   0.00   59.9    54    1.7    50     3.0   944.5    0.00 
 206    2:30   0.00   60.6    53    1.1   283     3.1   944.4    0.00 
 206    2:40   0.00   60.9    52    0.1    34     0.7   944.4    0.00 
 206    2:50   0.00   61.4    52    0.0     0     0.0   944.4    0.00 
 206    3:00   0.00   61.0    52    0.3    78     1.2   944.4    0.00 
 206    3:10   0.00   61.2    52    0.3    99     1.4   944.4    0.00 
 206    3:20   0.00   60.6    53    1.8   287     2.7   944.4    0.00 
 206    3:30   0.00   59.9    54    1.1   295     2.6   944.4    0.00 
 206    3:40   0.00   61.0    53    0.9   283     1.9   944.4    0.00 
 206    3:50   0.00   61.3    52    0.0     0     0.0   944.4    0.00 
 206    4:00   0.00   61.6    52    0.4   283     2.1   944.4    0.00 
 206    4:10   0.00   60.3    54    1.8   304     2.9   944.4    0.00 
 206    4:20   0.00   60.6    54    0.9   124     1.6   944.4    0.00 
 206    4:30   0.00   61.2    53    0.4   263     1.4   944.4    0.00 
 206    4:40   0.00   60.9    53    0.6   260     1.7   944.4    0.00 
 206    4:50   0.00   60.8    53    0.0   293     1.2   944.4    0.00 
 206    5:00   0.00   60.8    54    1.4   296     2.4   944.5    0.00 
 206    5:10   0.01   60.9    53    0.1   290     1.3   944.6    0.00 
 206    5:20   0.01   61.4    52    0.3   237     1.1   944.7    0.00 
 206    5:30   0.01   61.5    52    0.3   265     1.3   944.7    0.00 
 206    5:40   0.02   60.7    54    0.3   291     0.9   944.8    0.00 
 206    5:50   0.03   60.5    54    0.5   293     1.2   944.8    0.00 
 206    6:00   0.03   61.1    53    0.6   301     1.8   945.0    0.00 
 206    6:10   0.05   62.7    51    0.0     0     0.0   945.2    0.00 
 206    6:20   0.12   64.8    49    0.0     0     0.0   945.2    0.00 
 206    6:30   0.18   68.3    45    0.1    61     0.9   945.2    0.00 
 206    6:40   0.21   72.5    40    0.0   124     0.4   945.2    0.00 
 206    6:50   0.24   76.7    36    0.2   231     0.8   945.4    0.00 
 206    7:00   0.28   78.9    34    0.2   280     1.4   945.6    0.00 
 206    7:10   0.31   81.3    31    0.8   119     2.0   945.9    0.00 
 206    7:20   0.34   80.5    31    1.0   136     1.9   946.0    0.00 
 206    7:30   0.38   82.6    29    0.3   129     1.3   946.2    0.00 
 206    7:40   0.41   85.4    24    0.8   254     2.3   946.3    0.00 
 206    7:50   0.44   86.3    24    1.1   313     3.5   946.3    0.00 
 206    8:00   0.47   86.6    24    1.8   247     3.7   946.2    0.00 
 206    8:10   0.50   86.9    24    2.6   232     5.0   946.2    0.00 
 206    8:20   0.53   86.8    24    3.2   230     4.8   946.1    0.00 
 206    8:30   0.56   87.2    23    3.5   230     7.3   946.1    0.00 
 206    8:40   0.59   87.3    23    4.4   238     7.6   946.1    0.00 
 206    8:50   0.62   87.7    22    4.3   251     9.1   946.0    0.00 
 206    9:00   0.65   88.4    22    4.5   250     7.4   945.9    0.00 
 206    9:10   0.67   87.9    23    4.2   253     7.0   945.9    0.00 
 206    9:20   0.70   88.1    23    4.8   240     8.6   945.9    0.00 

Return to Blue Oak Ranch Reserve graphs page.


Western Regional Climate Center,wrcc@dri.edu